sensor_id;sensor_type;location;lat;lon;timestamp;pressure;altitude;pressure_sealevel;temperature;humidity
50484;BME280;36409;52.168;20.878;2023-02-18T00:01:08;99407.83;;;6.77;82.41
50484;BME280;36409;52.168;20.878;2023-02-18T00:03:37;99422.67;;;6.67;82.08
50484;BME280;36409;52.168;20.878;2023-02-18T00:06:13;99431.42;;;6.58;81.88
50484;BME280;36409;52.168;20.878;2023-02-18T00:08:43;99423.77;;;6.49;81.90
50484;BME280;36409;52.168;20.878;2023-02-18T00:11:13;99426.45;;;6.41;81.98
50484;BME280;36409;52.168;20.878;2023-02-18T00:13:43;99438.59;;;6.36;82.00
50484;BME280;36409;52.168;20.878;2023-02-18T00:16:12;99439.55;;;6.30;81.79
50484;BME280;36409;52.168;20.878;2023-02-18T00:18:41;99434.39;;;6.27;81.81
50484;BME280;36409;52.168;20.878;2023-02-18T00:21:10;99443.94;;;6.24;81.66
50484;BME280;36409;52.168;20.878;2023-02-18T00:23:39;99439.66;;;6.20;81.88
50484;BME280;36409;52.168;20.878;2023-02-18T00:26:14;99456.12;;;6.14;81.72
50484;BME280;36409;52.168;20.878;2023-02-18T00:28:45;99450.09;;;6.12;81.38
50484;BME280;36409;52.168;20.878;2023-02-18T00:31:26;99447.58;;;6.06;81.35
50484;BME280;36409;52.168;20.878;2023-02-18T00:33:57;99449.33;;;6.03;81.38
50484;BME280;36409;52.168;20.878;2023-02-18T00:36:29;99454.51;;;6.03;81.29
50484;BME280;36409;52.168;20.878;2023-02-18T00:39:03;99444.98;;;6.04;81.19
50484;BME280;36409;52.168;20.878;2023-02-18T00:41:34;99450.17;;;6.04;81.12
50484;BME280;36409;52.168;20.878;2023-02-18T00:44:04;99451.05;;;6.03;80.94
50484;BME280;36409;52.168;20.878;2023-02-18T00:46:35;99446.75;;;5.99;80.54
50484;BME280;36409;52.168;20.878;2023-02-18T00:49:05;99457.16;;;5.94;80.58
50484;BME280;36409;52.168;20.878;2023-02-18T00:51:37;99453.70;;;5.95;80.73
50484;BME280;36409;52.168;20.878;2023-02-18T00:54:06;99435.57;;;5.95;80.72
50484;BME280;36409;52.168;20.878;2023-02-18T00:56:36;99450.26;;;5.92;80.46
50484;BME280;36409;52.168;20.878;2023-02-18T00:59:05;99454.59;;;5.91;80.16
50484;BME280;36409;52.168;20.878;2023-02-18T01:01:34;99452.02;;;5.88;80.20
50484;BME280;36409;52.168;20.878;2023-02-18T01:04:04;99456.36;;;5.86;79.73
50484;BME280;36409;52.168;20.878;2023-02-18T01:06:35;99441.73;;;5.82;79.81
50484;BME280;36409;52.168;20.878;2023-02-18T01:09:05;99468.55;;;5.76;79.93
50484;BME280;36409;52.168;20.878;2023-02-18T01:11:35;99473.75;;;5.73;79.91
50484;BME280;36409;52.168;20.878;2023-02-18T01:14:04;99459.95;;;5.72;79.71
50484;BME280;36409;52.168;20.878;2023-02-18T01:16:35;99460.83;;;5.71;79.73
50484;BME280;36409;52.168;20.878;2023-02-18T01:19:04;99474.59;;;5.75;79.80
50484;BME280;36409;52.168;20.878;2023-02-18T01:21:33;99466.80;;;5.77;79.83
50484;BME280;36409;52.168;20.878;2023-02-18T01:24:05;99470.24;;;5.79;79.41
50484;BME280;36409;52.168;20.878;2023-02-18T01:26:36;99468.52;;;5.78;79.54
50484;BME280;36409;52.168;20.878;2023-02-18T01:29:05;99452.98;;;5.78;79.53
50484;BME280;36409;52.168;20.878;2023-02-18T01:31:35;99469.38;;;5.80;79.33
50484;BME280;36409;52.168;20.878;2023-02-18T01:34:04;99452.98;;;5.78;79.35
50484;BME280;36409;52.168;20.878;2023-02-18T01:36:33;99457.30;;;5.79;79.44
50484;BME280;36409;52.168;20.878;2023-02-18T01:39:03;99452.12;;;5.79;79.14
50484;BME280;36409;52.168;20.878;2023-02-18T01:41:35;99447.81;;;5.78;79.34
50484;BME280;36409;52.168;20.878;2023-02-18T01:44:15;99451.27;;;5.77;79.35
50484;BME280;36409;52.168;20.878;2023-02-18T01:46:46;99448.70;;;5.75;78.86
50484;BME280;36409;52.168;20.878;2023-02-18T01:49:21;99446.95;;;5.76;79.11
50484;BME280;36409;52.168;20.878;2023-02-18T01:51:53;99460.77;;;5.75;78.98
50484;BME280;36409;52.168;20.878;2023-02-18T01:54:27;99445.27;;;5.73;78.99
50484;BME280;36409;52.168;20.878;2023-02-18T01:57:00;99432.34;;;5.71;78.68
50484;BME280;36409;52.168;20.878;2023-02-18T01:59:33;99451.34;;;5.70;78.69
50484;BME280;36409;52.168;20.878;2023-02-18T02:02:07;99453.90;;;5.72;78.79
50484;BME280;36409;52.168;20.878;2023-02-18T02:04:39;99464.27;;;5.74;78.63
50484;BME280;36409;52.168;20.878;2023-02-18T02:07:10;99448.73;;;5.74;78.77
50484;BME280;36409;52.168;20.878;2023-02-18T02:09:41;99461.67;;;5.74;78.15
50484;BME280;36409;52.168;20.878;2023-02-18T02:12:24;99441.80;;;5.74;78.45
50484;BME280;36409;52.168;20.878;2023-02-18T02:18:20;99467.77;;;5.68;78.22
50484;BME280;36409;52.168;20.878;2023-02-18T02:21:31;99466.89;;;5.67;78.20
50484;BME280;36409;52.168;20.878;2023-02-18T02:27:20;99459.16;;;5.63;78.20
50484;BME280;36409;52.168;20.878;2023-02-18T02:33:20;99461.78;;;5.61;77.83
50484;BME280;36409;52.168;20.878;2023-02-18T02:35:55;99447.10;;;5.59;77.93
50484;BME280;36409;52.168;20.878;2023-02-18T02:38:33;99447.97;;;5.57;77.41
50484;BME280;36409;52.168;20.878;2023-02-18T02:41:14;99452.33;;;5.55;77.77
50484;BME280;36409;52.168;20.878;2023-02-18T02:43:59;99457.50;;;5.54;77.88
50484;BME280;36409;52.168;20.878;2023-02-18T02:46:39;99464.44;;;5.50;77.86
50484;BME280;36409;52.168;20.878;2023-02-18T02:49:16;99465.30;;;5.49;77.67
50484;BME280;36409;52.168;20.878;2023-02-18T02:51:52;99463.61;;;5.47;77.52
50484;BME280;36409;52.168;20.878;2023-02-18T02:54:26;99462.76;;;5.45;77.32
50484;BME280;36409;52.168;20.878;2023-02-18T02:57:08;99468.81;;;5.40;77.55
50484;BME280;36409;52.168;20.878;2023-02-18T03:00:28;99460.23;;;5.38;77.42
50484;BME280;36409;52.168;20.878;2023-02-18T03:03:23;99466.27;;;5.36;77.29
50484;BME280;36409;52.168;20.878;2023-02-18T03:06:16;99475.78;;;5.32;77.34
50484;BME280;36409;52.168;20.878;2023-02-18T03:08:58;99473.22;;;5.31;77.02
50484;BME280;36409;52.168;20.878;2023-02-18T03:11:37;99471.52;;;5.28;77.34
50484;BME280;36409;52.168;20.878;2023-02-18T03:14:13;99476.70;;;5.25;77.15
50484;BME280;36409;52.168;20.878;2023-02-18T03:17:09;99481.91;;;5.23;77.42
50484;BME280;36409;52.168;20.878;2023-02-18T03:19:44;99488.81;;;5.21;77.07
50484;BME280;36409;52.168;20.878;2023-02-18T03:22:24;99487.98;;;5.18;77.13
50484;BME280;36409;52.168;20.878;2023-02-18T03:24:57;99480.22;;;5.15;77.06
50484;BME280;36409;52.168;20.878;2023-02-18T03:27:31;99475.06;;;5.12;77.00
50484;BME280;36409;52.168;20.878;2023-02-18T03:30:04;99490.59;;;5.08;77.19
50484;BME280;36409;52.168;20.878;2023-02-18T03:32:37;99490.63;;;5.04;77.28
50484;BME280;36409;52.168;20.878;2023-02-18T03:35:09;99486.33;;;5.01;76.90
50484;BME280;36409;52.168;20.878;2023-02-18T03:37:41;99481.16;;;4.98;77.01
50484;BME280;36409;52.168;20.878;2023-02-18T03:40:10;99493.23;;;4.96;76.72
50484;BME280;36409;52.168;20.878;2023-02-18T03:42:39;99505.35;;;4.91;76.76
50484;BME280;36409;52.168;20.878;2023-02-18T03:45:07;99501.93;;;4.87;77.00
50484;BME280;36409;52.168;20.878;2023-02-18T03:47:36;99510.53;;;4.85;76.57
50484;BME280;36409;52.168;20.878;2023-02-18T03:50:07;99513.16;;;4.82;76.73
50484;BME280;36409;52.168;20.878;2023-02-18T03:52:36;99521.78;;;4.81;76.96
50484;BME280;36409;52.168;20.878;2023-02-18T03:55:05;99516.59;;;4.79;76.92
50484;BME280;36409;52.168;20.878;2023-02-18T03:57:38;99514.91;;;4.78;77.09
50484;BME280;36409;52.168;20.878;2023-02-18T04:00:09;99508.86;;;4.77;76.88
50484;BME280;36409;52.168;20.878;2023-02-18T04:02:41;99534.71;;;4.74;76.71
50484;BME280;36409;52.168;20.878;2023-02-18T04:05:10;99530.41;;;4.73;76.95
50484;BME280;36409;52.168;20.878;2023-02-18T04:07:38;99529.58;;;4.71;76.80
50484;BME280;36409;52.168;20.878;2023-02-18T04:10:08;99551.09;;;4.73;76.47
50484;BME280;36409;52.168;20.878;2023-02-18T04:12:36;99539.05;;;4.72;76.88
50484;BME280;36409;52.168;20.878;2023-02-18T04:15:09;99539.92;;;4.71;76.79
50484;BME280;36409;52.168;20.878;2023-02-18T04:17:36;99537.31;;;4.70;76.50
50484;BME280;36409;52.168;20.878;2023-02-18T04:20:06;99540.78;;;4.70;76.75
50484;BME280;36409;52.168;20.878;2023-02-18T04:22:34;99546.81;;;4.69;76.59
50484;BME280;36409;52.168;20.878;2023-02-18T04:25:03;99548.53;;;4.67;76.29
50484;BME280;36409;52.168;20.878;2023-02-18T04:27:32;99543.37;;;4.67;76.33
50484;BME280;36409;52.168;20.878;2023-02-18T04:30:00;99547.69;;;4.67;76.76
50484;BME280;36409;52.168;20.878;2023-02-18T04:32:28;99541.64;;;4.66;76.62
50484;BME280;36409;52.168;20.878;2023-02-18T04:34:56;99540.78;;;4.64;76.25
50484;BME280;36409;52.168;20.878;2023-02-18T04:37:24;99545.11;;;4.60;76.64
50484;BME280;36409;52.168;20.878;2023-02-18T04:39:53;99545.13;;;4.59;76.48
50484;BME280;36409;52.168;20.878;2023-02-18T04:42:21;99533.92;;;4.57;76.19
50484;BME280;36409;52.168;20.878;2023-02-18T04:44:53;99544.27;;;4.57;76.97
50484;BME280;36409;52.168;20.878;2023-02-18T04:47:24;99543.41;;;4.55;76.45
50484;BME280;36409;52.168;20.878;2023-02-18T04:49:59;99541.67;;;4.54;76.04
50484;BME280;36409;52.168;20.878;2023-02-18T04:52:28;99544.26;;;4.54;76.60
50484;BME280;36409;52.168;20.878;2023-02-18T04:54:57;99538.23;;;4.52;76.41
50484;BME280;36409;52.168;20.878;2023-02-18T04:57:25;99536.52;;;4.52;76.36
50484;BME280;36409;52.168;20.878;2023-02-18T04:59:55;99554.61;;;4.49;76.31
50484;BME280;36409;52.168;20.878;2023-02-18T05:02:24;99524.48;;;4.46;76.00
50484;BME280;36409;52.168;20.878;2023-02-18T05:04:55;99541.72;;;4.43;76.00
50484;BME280;36409;52.168;20.878;2023-02-18T05:07:23;99533.09;;;4.39;76.13
50484;BME280;36409;52.168;20.878;2023-02-18T05:09:51;99531.38;;;4.37;76.58
50484;BME280;36409;52.168;20.878;2023-02-18T05:12:20;99543.45;;;4.36;76.31
50484;BME280;36409;52.168;20.878;2023-02-18T05:14:51;99530.53;;;4.36;76.31
50484;BME280;36409;52.168;20.878;2023-02-18T05:17:19;99531.39;;;4.35;76.31
50484;BME280;36409;52.168;20.878;2023-02-18T05:19:48;99534.84;;;4.34;76.06
50484;BME280;36409;52.168;20.878;2023-02-18T05:22:19;99558.94;;;4.35;76.00
50484;BME280;36409;52.168;20.878;2023-02-18T05:24:48;99548.61;;;4.35;76.02
50484;BME280;36409;52.168;20.878;2023-02-18T05:27:18;99542.58;;;4.36;76.31
50484;BME280;36409;52.168;20.878;2023-02-18T05:29:46;99541.72;;;4.37;76.07
50484;BME280;36409;52.168;20.878;2023-02-18T05:32:14;99559.82;;;4.38;76.21
50484;BME280;36409;52.168;20.878;2023-02-18T05:34:44;99567.58;;;4.38;75.94
50484;BME280;36409;52.168;20.878;2023-02-18T05:37:13;99571.02;;;4.37;76.28
50484;BME280;36409;52.168;20.878;2023-02-18T05:39:41;99564.98;;;4.38;75.94
50484;BME280;36409;52.168;20.878;2023-02-18T05:42:09;99560.68;;;4.37;76.20
50484;BME280;36409;52.168;20.878;2023-02-18T05:44:37;99558.93;;;4.39;76.03
50484;BME280;36409;52.168;20.878;2023-02-18T05:47:08;99570.98;;;4.40;76.16
50484;BME280;36409;52.168;20.878;2023-02-18T05:49:38;99563.23;;;4.40;75.83
50484;BME280;36409;52.168;20.878;2023-02-18T05:52:08;99582.20;;;4.41;75.99
50484;BME280;36409;52.168;20.878;2023-02-18T05:54:36;99571.87;;;4.41;76.41
50484;BME280;36409;52.168;20.878;2023-02-18T05:57:04;99583.05;;;4.41;76.03
50484;BME280;36409;52.168;20.878;2023-02-18T05:59:37;99579.61;;;4.42;76.05
50484;BME280;36409;52.168;20.878;2023-02-18T06:02:05;99585.66;;;4.43;76.15
50484;BME280;36409;52.168;20.878;2023-02-18T06:04:33;99609.76;;;4.43;75.89
50484;BME280;36409;52.168;20.878;2023-02-18T06:07:01;99601.99;;;4.45;75.96
50484;BME280;36409;52.168;20.878;2023-02-18T06:09:29;99603.72;;;4.46;75.72
50484;BME280;36409;52.168;20.878;2023-02-18T06:11:57;99610.61;;;4.47;75.68
50484;BME280;36409;52.168;20.878;2023-02-18T06:14:27;99610.63;;;4.48;75.89
50484;BME280;36409;52.168;20.878;2023-02-18T06:16:55;99614.92;;;4.48;76.08
50484;BME280;36409;52.168;20.878;2023-02-18T06:19:24;99617.52;;;4.50;75.82
50484;BME280;36409;52.168;20.878;2023-02-18T06:21:53;99624.41;;;4.52;75.91
50484;BME280;36409;52.168;20.878;2023-02-18T06:24:22;99626.11;;;4.52;75.83
50484;BME280;36409;52.168;20.878;2023-02-18T06:26:50;99629.55;;;4.54;75.87
50484;BME280;36409;52.168;20.878;2023-02-18T06:29:19;99626.11;;;4.55;75.55
50484;BME280;36409;52.168;20.878;2023-02-18T06:31:47;99628.70;;;4.55;75.81
50484;BME280;36409;52.168;20.878;2023-02-18T06:34:18;99634.73;;;4.54;75.69
50484;BME280;36409;52.168;20.878;2023-02-18T06:36:46;99639.90;;;4.57;75.96
50484;BME280;36409;52.168;20.878;2023-02-18T06:39:15;99633.00;;;4.57;75.66
50484;BME280;36409;52.168;20.878;2023-02-18T06:41:44;99633.02;;;4.59;75.40
50484;BME280;36409;52.168;20.878;2023-02-18T06:44:12;99632.16;;;4.60;75.63
50484;BME280;36409;52.168;20.878;2023-02-18T06:46:41;99642.48;;;4.61;75.48
50484;BME280;36409;52.168;20.878;2023-02-18T06:49:13;99647.63;;;4.63;75.63
50484;BME280;36409;52.168;20.878;2023-02-18T06:51:41;99651.08;;;4.65;75.60
50484;BME280;36409;52.168;20.878;2023-02-18T06:54:10;99633.84;;;4.69;75.30
50484;BME280;36409;52.168;20.878;2023-02-18T06:56:38;99635.56;;;4.73;75.66
50484;BME280;36409;52.168;20.878;2023-02-18T06:59:07;99642.47;;;4.77;75.44
50484;BME280;36409;52.168;20.878;2023-02-18T07:01:38;99634.69;;;4.78;75.53
50484;BME280;36409;52.168;20.878;2023-02-18T07:04:07;99651.07;;;4.81;75.10
50484;BME280;36409;52.168;20.878;2023-02-18T07:06:36;99648.47;;;4.82;75.40
50484;BME280;36409;52.168;20.878;2023-02-18T07:09:04;99646.77;;;4.83;75.25
50484;BME280;36409;52.168;20.878;2023-02-18T07:11:32;99657.95;;;4.83;75.35
50484;BME280;36409;52.168;20.878;2023-02-18T07:14:00;99680.36;;;4.84;75.46
50484;BME280;36409;52.168;20.878;2023-02-18T07:16:28;99655.34;;;4.85;75.38
50484;BME280;36409;52.168;20.878;2023-02-18T07:18:57;99668.28;;;4.85;75.60
50484;BME280;36409;52.168;20.878;2023-02-18T07:21:25;99676.04;;;4.85;75.00
50484;BME280;36409;52.168;20.878;2023-02-18T07:23:56;99662.25;;;4.86;75.20
50484;BME280;36409;52.168;20.878;2023-02-18T07:26:26;99661.38;;;4.87;75.15
50484;BME280;36409;52.168;20.878;2023-02-18T07:28:55;99654.49;;;4.89;75.30
50484;BME280;36409;52.168;20.878;2023-02-18T07:31:23;99660.52;;;4.95;75.31
50484;BME280;36409;52.168;20.878;2023-02-18T07:33:52;99647.53;;;5.16;75.16
50484;BME280;36409;52.168;20.878;2023-02-18T07:36:20;99638.82;;;5.32;74.89
50484;BME280;36409;52.168;20.878;2023-02-18T07:38:48;99648.28;;;5.44;74.83
50484;BME280;36409;52.168;20.878;2023-02-18T07:41:20;99647.36;;;5.54;74.79
50484;BME280;36409;52.168;20.878;2023-02-18T07:43:48;99644.71;;;5.67;74.53
50484;BME280;36409;52.168;20.878;2023-02-18T07:46:17;99650.70;;;5.72;74.65
50484;BME280;36409;52.168;20.878;2023-02-18T07:48:45;99651.49;;;5.86;74.44
50484;BME280;36409;52.168;20.878;2023-02-18T07:51:13;99654.06;;;5.88;74.54
50484;BME280;36409;52.168;20.878;2023-02-18T07:53:41;99644.53;;;5.92;74.28
50484;BME280;36409;52.168;20.878;2023-02-18T07:56:09;99653.98;;;6.05;74.12
50484;BME280;36409;52.168;20.878;2023-02-18T07:58:38;99658.20;;;6.22;74.24
50484;BME280;36409;52.168;20.878;2023-02-18T08:01:07;99653.77;;;6.34;73.77
50484;BME280;36409;52.168;20.878;2023-02-18T08:03:35;99664.90;;;6.46;73.64
50484;BME280;36409;52.168;20.878;2023-02-18T08:06:04;99652.79;;;6.48;73.76
50484;BME280;36409;52.168;20.878;2023-02-18T08:08:33;99657.86;;;6.59;73.54
50484;BME280;36409;52.168;20.878;2023-02-18T08:11:04;99660.34;;;6.71;73.53
50484;BME280;36409;52.168;20.878;2023-02-18T08:13:45;99661.95;;;6.85;73.45
50484;BME280;36409;52.168;20.878;2023-02-18T08:16:17;99655.70;;;7.03;73.05
50484;BME280;36409;52.168;20.878;2023-02-18T08:18:46;99656.42;;;7.17;73.06
50484;BME280;36409;52.168;20.878;2023-02-18T08:21:17;99657.16;;;7.27;73.00
50484;BME280;36409;52.168;20.878;2023-02-18T08:23:46;99662.26;;;7.35;73.30
50484;BME280;36409;52.168;20.878;2023-02-18T08:26:15;99666.63;;;7.31;72.44
50484;BME280;36409;52.168;20.878;2023-02-18T08:28:44;99669.38;;;7.20;72.67
50484;BME280;36409;52.168;20.878;2023-02-18T08:31:16;99674.64;;;7.11;72.80
50484;BME280;36409;52.168;20.878;2023-02-18T08:33:45;99656.42;;;7.16;72.56
50484;BME280;36409;52.168;20.878;2023-02-18T08:36:13;99653.77;;;7.22;72.50
50484;BME280;36409;52.168;20.878;2023-02-18T08:38:41;99671.06;;;7.21;72.45
50484;BME280;36409;52.168;20.878;2023-02-18T08:41:09;99662.41;;;7.24;72.70
50484;BME280;36409;52.168;20.878;2023-02-18T08:43:39;99664.20;;;7.17;72.84
50484;BME280;36409;52.168;20.878;2023-02-18T08:46:10;99671.13;;;7.18;72.42
50484;BME280;36409;52.168;20.878;2023-02-18T08:48:43;99660.80;;;7.12;72.24
50484;BME280;36409;52.168;20.878;2023-02-18T08:51:12;99681.61;;;7.09;72.69
50484;BME280;36409;52.168;20.878;2023-02-18T08:53:41;99666.96;;;7.02;72.10
50484;BME280;36409;52.168;20.878;2023-02-18T08:56:09;99688.57;;;7.04;72.48
50484;BME280;36409;52.168;20.878;2023-02-18T08:58:37;99693.77;;;7.04;72.46
50484;BME280;36409;52.168;20.878;2023-02-18T09:01:05;99683.38;;;7.04;72.43
50484;BME280;36409;52.168;20.878;2023-02-18T09:03:35;99692.09;;;6.98;72.17
50484;BME280;36409;52.168;20.878;2023-02-18T09:06:03;99687.82;;;6.92;72.37
50484;BME280;36409;52.168;20.878;2023-02-18T09:08:32;99688.70;;;6.91;72.38
50484;BME280;36409;52.168;20.878;2023-02-18T09:11:01;99686.12;;;6.88;72.11
50484;BME280;36409;52.168;20.878;2023-02-18T09:13:30;99698.27;;;6.86;72.28
50484;BME280;36409;52.168;20.878;2023-02-18T09:15:59;99701.78;;;6.80;72.39
50484;BME280;36409;52.168;20.878;2023-02-18T09:18:28;99716.52;;;6.75;72.54
50484;BME280;36409;52.168;20.878;2023-02-18T09:20:56;99714.77;;;6.77;72.49
50484;BME280;36409;52.168;20.878;2023-02-18T09:23:25;99720.81;;;6.79;72.30
50484;BME280;36409;52.168;20.878;2023-02-18T09:25:53;99724.25;;;6.80;72.13
50484;BME280;36409;52.168;20.878;2023-02-18T09:28:21;99717.36;;;6.76;72.44
50484;BME280;36409;52.168;20.878;2023-02-18T09:30:51;99720.75;;;6.86;72.32
50484;BME280;36409;52.168;20.878;2023-02-18T09:33:19;99719.94;;;6.80;71.87
50484;BME280;36409;52.168;20.878;2023-02-18T09:35:47;99720.79;;;6.81;71.99
50484;BME280;36409;52.168;20.878;2023-02-18T09:38:16;99712.16;;;6.80;72.01
50484;BME280;36409;52.168;20.878;2023-02-18T09:40:45;99728.57;;;6.81;72.30
50484;BME280;36409;52.168;20.878;2023-02-18T09:43:18;99723.20;;;7.00;71.51
50484;BME280;36409;52.168;20.878;2023-02-18T09:45:51;99726.55;;;7.11;71.49
50484;BME280;36409;52.168;20.878;2023-02-18T09:48:23;99729.17;;;7.09;71.83
50484;BME280;36409;52.168;20.878;2023-02-18T09:50:53;99726.67;;;6.99;71.60
50484;BME280;36409;52.168;20.878;2023-02-18T09:53:22;99732.80;;;6.91;71.77
50484;BME280;36409;52.168;20.878;2023-02-18T09:55:53;99728.46;;;6.93;71.57
50484;BME280;36409;52.168;20.878;2023-02-18T09:58:22;99726.73;;;6.92;71.17
50484;BME280;36409;52.168;20.878;2023-02-18T10:00:51;99727.67;;;6.84;71.66
50484;BME280;36409;52.168;20.878;2023-02-18T10:03:21;99736.42;;;6.75;71.86
50484;BME280;36409;52.168;20.878;2023-02-18T10:05:54;99740.77;;;6.70;71.66
50484;BME280;36409;52.168;20.878;2023-02-18T10:08:24;99742.55;;;6.63;71.44
50484;BME280;36409;52.168;20.878;2023-02-18T10:10:53;99757.26;;;6.61;71.56
50484;BME280;36409;52.168;20.878;2023-02-18T10:13:23;99748.63;;;6.59;71.58
50484;BME280;36409;52.168;20.878;2023-02-18T10:15:52;99736.58;;;6.55;71.37
50484;BME280;36409;52.168;20.878;2023-02-18T10:18:30;99746.06;;;6.54;71.60
50484;BME280;36409;52.168;20.878;2023-02-18T10:21:02;99752.17;;;6.50;71.24
50484;BME280;36409;52.168;20.878;2023-02-18T10:23:33;99748.70;;;6.51;71.14
50484;BME280;36409;52.168;20.878;2023-02-18T10:26:02;99759.89;;;6.56;71.20
50484;BME280;36409;52.168;20.878;2023-02-18T10:28:32;99753.81;;;6.59;71.25
50484;BME280;36409;52.168;20.878;2023-02-18T10:31:02;99746.02;;;6.62;71.28
50484;BME280;36409;52.168;20.878;2023-02-18T10:33:35;99751.08;;;6.76;70.87
50484;BME280;36409;52.168;20.878;2023-02-18T10:36:22;99742.28;;;6.94;71.11
50484;BME280;36409;52.168;20.878;2023-02-18T10:38:58;99747.27;;;7.17;71.09
50484;BME280;36409;52.168;20.878;2023-02-18T10:41:32;99740.33;;;7.19;70.67
50484;BME280;36409;52.168;20.878;2023-02-18T10:44:05;99730.82;;;7.18;70.83
50484;BME280;36409;52.168;20.878;2023-02-18T10:46:42;99734.28;;;7.16;70.54
50484;BME280;36409;52.168;20.878;2023-02-18T10:49:24;99736.09;;;7.10;70.28
50484;BME280;36409;52.168;20.878;2023-02-18T10:51:58;99733.54;;;7.06;70.40
50484;BME280;36409;52.168;20.878;2023-02-18T10:54:47;99722.36;;;6.99;70.68
50484;BME280;36409;52.168;20.878;2023-02-18T10:57:24;99712.00;;;6.96;70.83
50484;BME280;36409;52.168;20.878;2023-02-18T10:59:55;99723.25;;;6.95;70.48
50484;BME280;36409;52.168;20.878;2023-02-18T11:02:24;99724.13;;;6.94;70.07
50484;BME280;36409;52.168;20.878;2023-02-18T11:04:56;99738.81;;;6.95;70.70
50484;BME280;36409;52.168;20.878;2023-02-18T11:07:29;99725.84;;;6.95;70.65
50484;BME280;36409;52.168;20.878;2023-02-18T11:09:58;99728.44;;;6.97;70.59
50484;BME280;36409;52.168;20.878;2023-02-18T11:12:28;99717.22;;;6.94;70.87
50484;BME280;36409;52.168;20.878;2023-02-18T11:15:05;99712.87;;;6.95;70.34
50484;BME280;36409;52.168;20.878;2023-02-18T11:17:35;99718.09;;;6.93;70.67
50484;BME280;36409;52.168;20.878;2023-02-18T11:20:22;99717.23;;;6.91;70.80
50484;BME280;36409;52.168;20.878;2023-02-18T11:22:56;99700.77;;;6.95;70.19
50484;BME280;36409;52.168;20.878;2023-02-18T11:25:25;99713.69;;;6.99;70.38
50484;BME280;36409;52.168;20.878;2023-02-18T11:27:54;99706.81;;;6.96;70.32
50484;BME280;36409;52.168;20.878;2023-02-18T11:30:24;99700.77;;;6.94;70.49
50484;BME280;36409;52.168;20.878;2023-02-18T11:32:54;99696.45;;;6.94;70.36
50484;BME280;36409;52.168;20.878;2023-02-18T11:35:25;99711.98;;;6.99;69.96
50484;BME280;36409;52.168;20.878;2023-02-18T11:37:55;99693.73;;;7.07;70.31
50484;BME280;36409;52.168;20.878;2023-02-18T11:40:25;99703.98;;;7.18;70.36
50484;BME280;36409;52.168;20.878;2023-02-18T11:43:02;99701.31;;;7.25;70.14
50484;BME280;36409;52.168;20.878;2023-02-18T11:45:31;99695.14;;;7.36;70.04
50484;BME280;36409;52.168;20.878;2023-02-18T11:48:02;99691.55;;;7.48;70.24
50484;BME280;36409;52.168;20.878;2023-02-18T11:50:34;99692.27;;;7.57;70.43
50484;BME280;36409;52.168;20.878;2023-02-18T11:53:16;99690.49;;;7.63;69.87
50484;BME280;36409;52.168;20.878;2023-02-18T11:55:53;99693.03;;;7.67;70.14
50484;BME280;36409;52.168;20.878;2023-02-18T11:58:22;99687.05;;;7.61;70.26
50484;BME280;36409;52.168;20.878;2023-02-18T12:00:52;99683.67;;;7.54;69.53
50484;BME280;36409;52.168;20.878;2023-02-18T12:03:25;99692.42;;;7.47;69.35
50484;BME280;36409;52.168;20.878;2023-02-18T12:05:59;99686.36;;;7.46;69.97
50484;BME280;36409;52.168;20.878;2023-02-18T12:08:29;99675.97;;;7.48;69.53
50484;BME280;36409;52.168;20.878;2023-02-18T12:11:00;99675.94;;;7.49;69.55
50484;BME280;36409;52.168;20.878;2023-02-18T12:13:30;99671.59;;;7.50;70.10
50484;BME280;36409;52.168;20.878;2023-02-18T12:16:02;99664.73;;;7.46;69.47
50484;BME280;36409;52.168;20.878;2023-02-18T12:18:40;99666.52;;;7.40;69.76
50484;BME280;36409;52.168;20.878;2023-02-18T12:21:23;99659.63;;;7.38;69.45
50484;BME280;36409;52.168;20.878;2023-02-18T12:24:02;99663.92;;;7.42;69.40
50484;BME280;36409;52.168;20.878;2023-02-18T12:26:35;99655.19;;;7.46;69.80
50484;BME280;36409;52.168;20.878;2023-02-18T12:29:12;99653.53;;;7.42;69.52
50484;BME280;36409;52.168;20.878;2023-02-18T12:31:46;99652.66;;;7.41;69.25
50484;BME280;36409;52.168;20.878;2023-02-18T12:34:22;99659.55;;;7.44;69.39
50484;BME280;36409;52.168;20.878;2023-02-18T12:36:57;99645.77;;;7.39;69.02
50484;BME280;36409;52.168;20.878;2023-02-18T12:39:31;99642.39;;;7.32;69.92
50484;BME280;36409;52.168;20.878;2023-02-18T12:42:07;99642.48;;;7.26;69.22
50484;BME280;36409;52.168;20.878;2023-02-18T12:44:41;99628.66;;;7.22;69.41
50484;BME280;36409;52.168;20.878;2023-02-18T12:47:29;99633.03;;;7.20;69.42
50484;BME280;36409;52.168;20.878;2023-02-18T12:50:15;99627.78;;;7.23;69.47
50484;BME280;36409;52.168;20.878;2023-02-18T12:52:53;99628.63;;;7.25;69.28
50484;BME280;36409;52.168;20.878;2023-02-18T12:55:35;99632.04;;;7.29;69.77
50484;BME280;36409;52.168;20.878;2023-02-18T12:58:10;99618.94;;;7.38;69.72
50484;BME280;36409;52.168;20.878;2023-02-18T13:00:52;99626.63;;;7.46;69.92
50484;BME280;36409;52.168;20.878;2023-02-18T13:03:49;99617.97;;;7.47;69.82
50484;BME280;36409;52.168;20.878;2023-02-18T13:06:22;99610.20;;;7.44;69.69
50484;BME280;36409;52.168;20.878;2023-02-18T13:08:59;99618.06;;;7.41;69.74
50484;BME280;36409;52.168;20.878;2023-02-18T13:11:35;99603.39;;;7.37;69.23
50484;BME280;36409;52.168;20.878;2023-02-18T13:14:07;99600.02;;;7.32;69.18
50484;BME280;36409;52.168;20.878;2023-02-18T13:16:44;99608.77;;;7.23;69.12
50484;BME280;36409;52.168;20.878;2023-02-18T13:19:15;99603.73;;;7.10;68.98
50484;BME280;36409;52.168;20.878;2023-02-18T13:21:46;99609.03;;;7.00;69.20
50484;BME280;36409;52.168;20.878;2023-02-18T13:24:19;99609.16;;;6.89;69.61
50484;BME280;36409;52.168;20.878;2023-02-18T13:26:49;99605.80;;;6.79;69.71
50484;BME280;36409;52.168;20.878;2023-02-18T13:29:25;99611.92;;;6.75;69.62
50484;BME280;36409;52.168;20.878;2023-02-18T13:31:59;99609.34;;;6.70;69.74
50484;BME280;36409;52.168;20.878;2023-02-18T13:34:31;99617.20;;;6.64;69.51